메인 페이지
METAR-TAF:

METAR-TAF

공항 :

헌츠빌, 앨라배마, 미국

위도: 34-51-41N, 경도: 086-33-26W, 고도: 230m

현재 날씨관측

예보는 24분 전, 19:35시(UTC)에 발표되었습니다.
북북서17kt
온도 -1°C
습도 59%
기압 1027 hPa
시정: 16.1km
맑음

METAR: KMDQ 121935Z AUTO 34017KT 10SM CLR M01/M08 A3034 RMK A02 T10101083

시각: 13:59 (19:59 UTC)


TAF: 누락

4,000개 이상의 공항 관측 자료 및 예보 (METAR 및 TAF 보고).

지도상에서 검색 가능한 기상관측소가 노란 점과 빨간 점으로 표시되어 있습니다.

기상관측소 명을 보려면 표시 위로 마우스를 이동하세요.

날씨 관측과 예보를 보려면 클릭하세요.

지도 변경 : 확대하려면 엑스 표시가 있는 녹색 버튼, 축소하려면 빼기 표시가 있는 녹색 버튼, 다음 페이지의 지도를 보려면 녹색 화살표를 클릭하세요.


METAR-TAF: